Time;durP1;ratioP1;P1;durP2;ratioP2;P2;SDS_P1;SDS_P2;PMS_P1;PMS_P2;Temp;Humidity;BMP_temperature;BMP_pressure;BME280_temperature;BME280_humidity;BME280_pressure;Samples;Min_cycle;Max_cycle;Signal;HPM_P1;HPM_P2
2021/07/03 00:01:38;;;;;;;3.60;3.40;;;;;;;20.56;60.24;94615.56;5094137;28;20447;-82
2021/07/03 00:04:05;;;;;;;5.60;3.70;;;;;;;20.61;60.60;94626.47;5094271;28;20432;-83
2021/07/03 00:06:32;;;;;;;3.60;3.40;;;;;;;20.56;60.88;94627.06;5094296;28;20440;-83
2021/07/03 00:08:59;;;;;;;3.40;3.20;;;;;;;20.55;60.77;94632.59;5094051;28;20822;-82
2021/07/03 00:11:28;;;;;;;3.73;3.53;;;;;;;20.51;61.21;94631.31;5093734;28;20451;-83
2021/07/03 00:13:55;;;;;;;4.63;3.10;;;;;;;20.47;61.15;94622.88;5094031;28;20443;-83
2021/07/03 00:16:22;;;;;;;3.40;3.20;;;;;;;20.45;61.14;94629.44;5093939;28;20480;-83
2021/07/03 00:18:49;;;;;;;6.50;3.40;;;;;;;20.37;61.59;94628.56;5093677;28;20897;-82
2021/07/03 00:21:16;;;;;;;5.23;3.90;;;;;;;20.33;61.58;94627.31;5094087;28;20527;-82
2021/07/03 00:23:43;;;;;;;3.77;3.17;;;;;;;20.34;61.98;94638.78;5093720;28;20991;-83
2021/07/03 00:26:10;;;;;;;3.83;3.50;;;;;;;20.34;62.07;94642.28;5057814;28;20436;-83
2021/07/03 00:28:38;;;;;;;3.10;2.90;;;;;;;20.39;61.87;94637.19;5093740;28;20526;-83
2021/07/03 00:31:05;;;;;;;3.80;3.50;;;;;;;20.32;62.22;94641.66;5093630;28;20440;-82
2021/07/03 00:33:32;;;;;;;3.20;3.00;;;;;;;20.35;62.35;94637.75;5093440;28;20443;-83
2021/07/03 00:35:59;;;;;;;2.97;2.87;;;;;;;20.45;62.13;94642.75;5093717;28;20579;-83
2021/07/03 00:38:26;;;;;;;3.50;3.30;;;;;;;20.47;61.99;94646.06;5093403;28;20936;-83
2021/07/03 00:40:54;;;;;;;3.20;3.00;;;;;;;20.52;61.94;94640.94;5093338;28;20450;-83
2021/07/03 00:43:20;;;;;;;3.00;2.80;;;;;;;20.51;62.26;94641.97;5093271;28;20865;-83
2021/07/03 00:45:49;;;;;;;3.63;3.33;;;;;;;20.60;62.00;94646.16;5093510;28;20451;-83
2021/07/03 00:48:16;;;;;;;3.57;3.37;;;;;;;20.57;62.04;94641.22;5093436;28;20444;-83
2021/07/03 00:50:43;;;;;;;3.50;3.30;;;;;;;20.60;61.82;94651.47;5093166;28;20586;-83
2021/07/03 00:53:11;;;;;;;4.20;3.33;;;;;;;20.60;61.61;94641.63;5093258;28;20936;-83
2021/07/03 00:55:38;;;;;;;2.90;2.60;;;;;;;20.55;61.87;94637.91;5093092;28;20574;-83
2021/07/03 00:58:05;;;;;;;3.03;2.83;;;;;;;20.44;62.26;94633.13;5093050;28;20523;-83
2021/07/03 01:00:32;;;;;;;3.13;2.93;;;;;;;20.32;62.12;94633.66;5092868;28;20820;-83
2021/07/03 01:03:00;;;;;;;3.20;3.00;;;;;;;20.28;62.74;94635.06;5092875;28;20472;-83
2021/07/03 01:05:27;;;;;;;3.93;2.90;;;;;;;20.30;62.63;94637.53;5092951;28;20526;-82
2021/07/03 01:07:54;;;;;;;3.90;3.67;;;;;;;20.16;63.52;94633.94;5093449;28;20878;-83
2021/07/03 01:10:23;;;;;;;3.17;2.90;;;;;;;20.17;63.17;94638.25;5092553;28;20447;-82
2021/07/03 01:12:51;;;;;;;3.30;2.90;;;;;;;20.17;63.39;94645.44;5073897;28;20442;-83
2021/07/03 01:15:19;;;;;;;3.20;3.00;;;;;;;20.10;63.55;94634.72;5092665;28;20439;-83
2021/07/03 01:17:47;;;;;;;3.37;2.70;;;;;;;20.09;63.20;94647.22;5092709;28;20494;-83
2021/07/03 01:20:17;;;;;;;3.40;3.10;;;;;;;20.18;63.24;94647.91;5092698;28;20450;-82
2021/07/03 01:22:47;;;;;;;2.90;2.70;;;;;;;20.20;63.36;94651.19;5092162;28;20443;-83
2021/07/03 01:25:16;;;;;;;2.93;2.73;;;;;;;20.17;63.42;94643.59;5092544;28;20519;-83
2021/07/03 01:27:43;;;;;;;4.60;2.87;;;;;;;20.20;63.32;94645.84;5057084;28;20436;-82
2021/07/03 01:30:12;;;;;;;2.60;2.40;;;;;;;20.15;63.51;94636.81;5092347;28;20448;-83
2021/07/03 01:32:39;;;;;;;3.20;2.97;;;;;;;20.11;63.58;94636.38;5073968;28;20521;-83
2021/07/03 01:35:07;;;;;;;3.00;2.80;;;;;;;20.11;63.17;94639.03;5092652;28;20455;-82
2021/07/03 01:37:34;;;;;;;2.97;2.77;;;;;;;20.13;63.85;94623.69;5092228;28;20488;-82
2021/07/03 01:40:03;;;;;;;4.07;3.17;;;;;;;20.18;63.29;94621.25;5073559;28;20510;-82
2021/07/03 01:42:30;;;;;;;3.50;2.70;;;;;;;20.24;63.07;94623.16;5092557;28;20524;-83
2021/07/03 01:44:57;;;;;;;5.60;2.90;;;;;;;20.23;63.12;94626.81;5092488;28;20473;-83
2021/07/03 01:47:24;;;;;;;3.13;2.63;;;;;;;20.22;62.69;94627.84;5092202;28;20436;-83
2021/07/03 01:49:51;;;;;;;2.57;2.47;;;;;;;20.19;62.90;94617.56;5092286;28;20450;-83
2021/07/03 01:52:19;;;;;;;8.80;3.43;;;;;;;20.23;62.93;94623.31;5092334;28;20822;-83
2021/07/03 01:54:46;;;;;;;3.23;2.60;;;;;;;20.24;62.25;94622.31;5092152;28;20490;-82
2021/07/03 01:57:14;;;;;;;3.53;3.10;;;;;;;20.28;62.26;94627.06;5092048;28;20573;-83
2021/07/03 01:59:41;;;;;;;3.63;2.90;;;;;;;20.32;62.08;94627.50;5092659;28;20515;-83
2021/07/03 02:02:08;;;;;;;2.67;2.47;;;;;;;20.30;62.30;94617.03;5092112;28;20892;-83
2021/07/03 02:04:35;;;;;;;2.80;2.70;;;;;;;20.35;61.71;94633.25;5092232;28;20511;-82
2021/07/03 02:07:02;;;;;;;2.83;2.63;;;;;;;20.35;61.54;94630.59;5091943;28;20446;-83
2021/07/03 02:09:29;;;;;;;2.40;2.20;;;;;;;20.31;61.09;94629.34;5073035;28;20530;-83
2021/07/03 02:11:56;;;;;;;2.73;2.53;;;;;;;20.32;60.67;94628.31;5092068;28;20515;-82
2021/07/03 02:14:25;;;;;;;7.10;2.90;;;;;;;20.29;60.70;94619.91;5092146;28;20525;-83
2021/07/03 02:16:52;;;;;;;2.30;2.10;;;;;;;20.21;60.97;94626.19;5092061;28;20579;-82
2021/07/03 02:19:20;;;;;;;3.57;2.73;;;;;;;20.27;61.34;94625.44;5091917;28;20492;-83
2021/07/03 02:21:47;;;;;;;2.73;2.53;;;;;;;20.22;60.87;94625.16;5091921;28;20448;-83
2021/07/03 02:24:14;;;;;;;2.53;2.37;;;;;;;20.12;60.83;94619.38;5092078;28;20450;-83
2021/07/03 02:26:41;;;;;;;2.60;2.40;;;;;;;20.13;61.53;94620.19;5091957;28;20876;-82
2021/07/03 02:29:08;;;;;;;2.23;2.03;;;;;;;20.11;60.47;94621.22;5091697;28;20543;-82
2021/07/03 02:31:37;;;;;;;2.87;2.67;;;;;;;20.06;60.28;94620.97;5091944;28;20523;-83
2021/07/03 02:34:04;;;;;;;2.23;2.13;;;;;;;19.99;60.97;94619.31;5093835;28;20862;-83
2021/07/03 02:36:31;;;;;;;2.83;2.53;;;;;;;19.98;60.72;94621.13;5095854;28;20479;-83
2021/07/03 02:38:58;;;;;;;3.03;2.73;;;;;;;20.01;60.64;94619.94;5060087;28;20448;-82
2021/07/03 02:41:25;;;;;;;2.60;2.40;;;;;;;19.91;61.07;94617.59;5095832;28;20447;-83
2021/07/03 02:43:52;;;;;;;3.20;2.60;;;;;;;19.98;61.04;94620.31;5095642;28;20530;-83
2021/07/03 02:46:19;;;;;;;3.00;2.23;;;;;;;19.99;61.14;94630.78;5095311;28;20448;-82
2021/07/03 02:48:47;;;;;;;3.30;2.40;;;;;;;19.99;60.67;94632.63;5095449;28;20430;-83
2021/07/03 02:51:14;;;;;;;3.07;2.50;;;;;;;19.93;60.81;94628.03;5076097;28;20554;-83
2021/07/03 02:53:41;;;;;;;2.97;2.67;;;;;;;19.85;60.91;94630.84;5076429;28;20431;-82
2021/07/03 02:56:08;;;;;;;7.03;2.53;;;;;;;19.84;60.93;94631.88;5095830;28;20489;-83
2021/07/03 02:58:35;;;;;;;2.67;2.47;;;;;;;19.78;61.06;94631.63;5095403;28;20451;-82
2021/07/03 03:01:02;;;;;;;2.70;2.50;;;;;;;19.73;61.71;94636.72;5095024;28;20811;-83
2021/07/03 03:03:30;;;;;;;3.60;2.00;;;;;;;19.61;61.71;94632.91;5095477;28;20483;-82
2021/07/03 03:05:58;;;;;;;2.70;2.43;;;;;;;19.56;62.82;94640.66;5094938;28;20442;-83
2021/07/03 03:08:25;;;;;;;2.80;2.60;;;;;;;19.55;62.36;94640.84;5095473;28;20512;-82
2021/07/03 03:10:52;;;;;;;3.30;2.30;;;;;;;19.56;62.05;94634.50;5095435;28;20495;-83
2021/07/03 03:13:19;;;;;;;2.20;2.00;;;;;;;19.59;62.56;94642.09;5095104;28;20525;-83
2021/07/03 03:15:47;;;;;;;3.93;2.83;;;;;;;19.60;62.04;94649.91;5076107;28;20833;-82
2021/07/03 03:18:14;;;;;;;3.20;2.40;;;;;;;19.63;62.25;94649.50;5076056;28;20482;-83
2021/07/03 03:20:40;;;;;;;4.03;2.53;;;;;;;19.60;62.23;94654.41;5094925;28;20867;-83
2021/07/03 03:23:09;;;;;;;5.57;3.80;;;;;;;19.65;62.27;94658.13;5094635;28;20490;-83
2021/07/03 03:25:36;;;;;;;2.30;2.10;;;;;;;19.77;61.85;94661.13;5094807;28;20514;-83
2021/07/03 03:28:03;;;;;;;2.60;2.40;;;;;;;20.04;61.59;94667.47;5094895;28;21029;-83
2021/07/03 03:30:30;;;;;;;2.13;2.03;;;;;;;20.25;60.32;94663.94;5094792;28;20459;-84
2021/07/03 03:32:57;;;;;;;4.10;3.07;;;;;;;20.39;59.51;94666.50;5094815;28;20515;-84
2021/07/03 03:35:24;;;;;;;3.73;2.10;;;;;;;20.64;59.36;94674.88;5094381;28;20443;-84
2021/07/03 03:37:51;;;;;;;3.37;2.60;;;;;;;20.79;58.36;94676.56;5094603;28;20494;-83
2021/07/03 03:40:20;;;;;;;4.70;2.60;;;;;;;20.99;57.66;94675.66;5094633;28;20995;-84
2021/07/03 03:42:48;;;;;;;4.33;2.23;;;;;;;21.21;57.41;94683.53;5094842;28;20468;-84
2021/07/03 03:45:15;;;;;;;2.30;2.10;;;;;;;21.51;56.42;94671.53;5059104;28;20794;-84
2021/07/03 03:47:42;;;;;;;4.83;2.20;;;;;;;21.78;56.64;94674.25;5094547;28;20523;-84
2021/07/03 03:50:11;;;;;;;15.07;2.50;;;;;;;21.75;55.83;94680.81;5094361;28;20439;-83
2021/07/03 03:52:38;;;;;;;2.60;2.43;;;;;;;21.62;56.42;94665.59;5094143;28;20475;-84
2021/07/03 03:55:06;;;;;;;4.60;3.17;;;;;;;21.74;56.31;94665.00;5094143;28;20533;-84
2021/07/03 03:57:35;;;;;;;2.80;2.60;;;;;;;21.44;56.58;94675.22;5075563;28;20484;-84
2021/07/03 04:00:02;;;;;;;2.90;2.70;;;;;;;21.39;57.06;94670.47;5095537;28;20477;-84
2021/07/03 04:02:29;;;;;;;7.07;2.40;;;;;;;21.78;58.91;94666.22;5095396;28;20480;-85
2021/07/03 04:04:56;;;;;;;8.10;2.87;;;;;;;22.01;55.70;94673.84;5095258;28;20528;-82
2021/07/03 04:07:23;;;;;;;3.07;2.87;;;;;;;22.29;54.71;94668.31;5059954;28;20474;-84
2021/07/03 04:09:50;;;;;;;9.13;3.77;;;;;;;22.65;56.14;94667.84;5094995;28;20522;-85
2021/07/03 04:12:18;;;;;;;7.33;3.37;;;;;;;23.21;52.54;94673.44;5095402;28;20453;-86
2021/07/03 04:14:46;;;;;;;3.70;2.77;;;;;;;23.65;51.82;94677.13;5095663;28;20475;-82
2021/07/03 04:17:14;;;;;;;3.00;2.70;;;;;;;23.68;50.63;94672.16;5096681;28;20509;-81
2021/07/03 04:19:41;;;;;;;5.90;3.20;;;;;;;23.62;50.49;94667.66;5101464;28;20459;-81
2021/07/03 04:22:09;;;;;;;3.80;2.90;;;;;;;23.11;51.47;94678.41;5098707;28;20502;-81
2021/07/03 04:24:36;;;;;;;3.57;3.27;;;;;;;23.09;52.25;94677.78;5101920;28;20501;-81
2021/07/03 04:27:04;;;;;;;3.90;3.00;;;;;;;22.77;54.28;94672.31;5095324;28;20458;-81
2021/07/03 04:29:31;;;;;;;3.13;2.83;;;;;;;22.87;54.11;94677.28;5094893;28;20460;-81
2021/07/03 04:32:00;;;;;;;4.40;3.00;;;;;;;22.42;53.87;94658.41;5094704;28;20445;-81
2021/07/03 04:34:27;;;;;;;3.33;3.03;;;;;;;22.21;55.54;94670.16;5094372;28;20525;-81
2021/07/03 04:36:54;;;;;;;6.17;3.93;;;;;;;22.39;55.17;94676.72;5094196;28;20561;-83
2021/07/03 04:39:22;;;;;;;5.23;4.13;;;;;;;22.53;54.90;94673.81;5094388;28;20482;-82
2021/07/03 04:41:49;;;;;;;3.97;2.93;;;;;;;22.68;54.87;94684.28;5094813;28;20486;-81
2021/07/03 04:44:17;;;;;;;3.97;3.20;;;;;;;22.57;54.70;94676.91;5094361;28;20451;-81
2021/07/03 04:46:44;;;;;;;3.40;3.10;;;;;;;22.74;53.94;94683.44;5094523;28;20454;-81
2021/07/03 04:49:13;;;;;;;14.50;3.47;;;;;;;22.95;53.87;94686.91;5094207;28;20897;-81
2021/07/03 04:51:41;;;;;;;3.63;3.17;;;;;;;23.06;53.66;94695.09;5094410;28;20561;-80
2021/07/03 04:54:08;;;;;;;3.30;3.00;;;;;;;23.37;52.55;94699.72;5042423;28;20531;-81
2021/07/03 04:56:35;;;;;;;3.27;2.97;;;;;;;23.62;51.76;94693.63;5093214;28;20542;-81
2021/07/03 04:59:02;;;;;;;3.33;3.03;;;;;;;23.92;50.77;94693.84;5058756;28;20493;-81
2021/07/03 05:01:29;;;;;;;5.07;2.67;;;;;;;23.90;50.66;94693.25;5094411;28;20420;-81
2021/07/03 05:03:56;;;;;;;6.10;3.70;;;;;;;23.80;50.93;94685.69;5093886;28;20508;-82
2021/07/03 05:06:24;;;;;;;3.80;3.10;;;;;;;23.86;50.21;94686.69;5094129;28;20803;-82
2021/07/03 05:08:51;;;;;;;3.33;3.10;;;;;;;23.41;50.36;94674.13;5094075;28;20519;-85
2021/07/03 05:11:18;;;;;;;4.03;3.70;;;;;;;23.58;51.00;94679.84;5094172;28;20469;-84
2021/07/03 05:13:45;;;;;;;4.77;4.37;;;;;;;23.85;50.64;94691.22;5093791;28;20520;-84
2021/07/03 05:16:12;;;;;;;5.03;3.67;;;;;;;24.17;49.63;94688.53;5058603;28;20452;-83
2021/07/03 05:18:39;;;;;;;4.37;3.97;;;;;;;24.47;49.18;94686.03;5093795;28;20477;-84
2021/07/03 05:21:06;;;;;;;4.87;4.37;;;;;;;24.28;48.88;94690.50;5093435;28;20436;-83
2021/07/03 05:23:34;;;;;;;7.33;4.70;;;;;;;24.42;50.89;94685.88;5093610;28;20526;-81
2021/07/03 05:26:01;;;;;;;4.67;4.27;;;;;;;24.50;49.03;94693.63;5075845;28;20442;-86
2021/07/03 05:28:28;;;;;;;4.43;3.63;;;;;;;24.42;48.87;94686.69;5094033;28;20524;-81
2021/07/03 05:30:56;;;;;;;7.97;3.97;;;;;;;24.67;47.91;94684.78;5074804;28;20515;-81
2021/07/03 05:33:23;;;;;;;5.20;3.53;;;;;;;24.82;47.54;94680.91;5093687;28;20520;-81
2021/07/03 05:35:50;;;;;;;4.43;3.50;;;;;;;24.81;47.75;94684.63;5093321;28;20818;-86
2021/07/03 05:38:17;;;;;;;5.50;3.70;;;;;;;25.00;47.95;94683.66;5093264;28;20482;-82
2021/07/03 05:40:45;;;;;;;7.67;4.13;;;;;;;24.76;47.23;94685.31;5093359;28;21033;-81
2021/07/03 05:43:12;;;;;;;4.70;3.90;;;;;;;24.54;47.23;94674.16;5093265;28;20534;-81
2021/07/03 05:45:39;;;;;;;7.93;4.10;;;;;;;24.62;46.47;94687.31;5093294;28;20434;-82
2021/07/03 05:48:06;;;;;;;3.80;3.50;;;;;;;24.55;46.40;94686.53;5074702;28;20447;-82
2021/07/03 05:50:33;;;;;;;3.30;3.00;;;;;;;24.70;45.98;94695.09;5096088;28;20448;-83
2021/07/03 05:53:00;;;;;;;4.47;4.07;;;;;;;24.69;47.16;94693.44;5093613;28;20582;-84
2021/07/03 05:55:27;;;;;;;4.73;4.07;;;;;;;25.07;46.57;94700.50;5092858;28;20524;-82
2021/07/03 05:57:56;;;;;;;6.10;3.80;;;;;;;25.26;48.41;94712.06;5093218;28;20487;-82
2021/07/03 06:00:23;;;;;;;4.10;3.80;;;;;;;25.55;50.45;94699.72;5093129;28;20458;-81
2021/07/03 06:02:50;;;;;;;5.17;3.87;;;;;;;25.76;46.59;94698.44;5057991;28;20443;-82
2021/07/03 06:05:17;;;;;;;5.40;3.67;;;;;;;25.30;45.49;94707.88;5093193;28;20527;-85
2021/07/03 06:07:44;;;;;;;3.83;3.60;;;;;;;25.03;46.27;94699.31;5093840;28;20490;-82
2021/07/03 06:10:13;;;;;;;3.60;3.13;;;;;;;24.98;46.86;94702.66;5097535;28;20434;-81
2021/07/03 06:12:40;;;;;;;4.50;4.10;;;;;;;24.86;47.73;94711.63;5097047;28;20529;-80
2021/07/03 06:15:11;;;;;;;4.60;4.20;;;;;;;24.82;49.07;94692.47;5097523;28;20446;-82
2021/07/03 06:17:38;;;;;;;6.17;4.17;;;;;;;25.00;49.03;94699.75;5061679;28;21015;-81
2021/07/03 06:20:08;;;;;;;7.07;4.40;;;;;;;25.11;46.71;94704.38;5097138;28;20449;-81
2021/07/03 06:22:36;;;;;;;4.93;3.73;;;;;;;25.08;46.79;94694.06;5097324;28;20510;-81
2021/07/03 06:25:03;;;;;;;4.37;3.87;;;;;;;25.12;46.27;94689.91;5097170;28;20433;-82
2021/07/03 06:27:29;;;;;;;5.67;4.43;;;;;;;24.88;46.98;94690.78;5096921;28;20526;-82
2021/07/03 06:29:56;;;;;;;5.50;4.70;;;;;;;24.46;49.20;94689.75;5096882;28;20434;-81
2021/07/03 06:32:28;;;;;;;5.50;5.00;;;;;;;24.78;47.20;94687.78;5097382;28;20529;-81
2021/07/03 06:34:55;;;;;;;4.80;4.40;;;;;;;25.07;47.27;94694.31;5096755;28;20437;-82
2021/07/03 06:37:22;;;;;;;4.87;4.43;;;;;;;25.44;46.45;94709.34;5096550;28;20569;-83
2021/07/03 06:39:49;;;;;;;4.20;3.80;;;;;;;25.83;46.99;94707.22;5096802;28;20486;-81
2021/07/03 06:42:17;;;;;;;5.40;4.30;;;;;;;26.21;45.34;94698.75;5096666;28;20537;-82
2021/07/03 06:44:45;;;;;;;7.47;5.00;;;;;;;26.48;45.13;94708.06;5096731;28;20457;-82
2021/07/03 06:47:12;;;;;;;6.43;5.27;;;;;;;26.23;44.53;94704.72;5097753;28;20447;-80
2021/07/03 06:49:41;;;;;;;4.60;3.73;;;;;;;25.60;44.20;94699.84;5096583;28;20989;-81
2021/07/03 06:52:09;;;;;;;8.80;4.10;;;;;;;24.87;49.49;94710.63;5096398;28;20484;-81
2021/07/03 06:54:36;;;;;;;5.57;5.03;;;;;;;24.42;47.50;94712.69;5096637;28;20454;-80
2021/07/03 06:57:04;;;;;;;5.77;5.27;;;;;;;23.97;49.08;94710.94;5096652;28;20932;-79
2021/07/03 06:59:31;;;;;;;4.67;4.27;;;;;;;23.98;50.38;94699.16;5096458;28;20525;-79
2021/07/03 07:01:59;;;;;;;6.03;4.20;;;;;;;24.08;49.14;94699.53;5096245;28;20518;-79
2021/07/03 07:04:26;;;;;;;5.33;4.37;;;;;;;24.23;48.80;94709.09;5096162;28;20926;-78
2021/07/03 07:06:56;;;;;;;4.72;4.43;;;;;;;24.13;50.37;94717.63;5095697;28;20440;-79
2021/07/03 07:09:24;;;;;;;5.27;4.03;;;;;;;23.70;49.16;94710.28;5096152;28;20294;-76
2021/07/03 07:11:51;;;;;;;5.20;4.53;;;;;;;23.13;50.48;94708.47;5095788;28;20443;-76
2021/07/03 07:14:18;;;;;;;4.13;3.83;;;;;;;22.90;51.52;94708.16;5096141;28;20526;-76
2021/07/03 07:16:45;;;;;;;6.37;3.30;;;;;;;23.05;51.20;94709.53;5095680;28;20537;-75
2021/07/03 07:19:12;;;;;;;4.47;4.17;;;;;;;23.58;51.31;94698.59;5075932;28;20492;-75
2021/07/03 07:21:39;;;;;;;4.90;4.47;;;;;;;23.92;50.51;94699.22;5095337;28;20874;-78
2021/07/03 07:24:07;;;;;;;6.10;4.27;;;;;;;24.16;48.36;94692.25;5095843;28;20523;-78
2021/07/03 07:26:34;;;;;;;5.20;4.27;;;;;;;24.08;49.24;94696.03;5060794;28;20446;-77
2021/07/03 07:29:02;;;;;;;4.10;3.70;;;;;;;24.39;48.86;94703.22;5095707;28;20441;-77
2021/07/03 07:31:29;;;;;;;4.20;3.80;;;;;;;24.24;48.18;94700.81;5096157;28;20509;-77
2021/07/03 07:33:56;;;;;;;5.25;4.10;;;;;;;24.60;50.44;94697.47;5095168;28;20515;-77
2021/07/03 07:36:23;;;;;;;4.17;3.87;;;;;;;24.53;47.75;94699.38;5095634;28;20199;-77
2021/07/03 07:38:50;;;;;;;4.43;4.03;;;;;;;24.26;48.46;94708.66;5095586;28;20489;-77
2021/07/03 07:41:18;;;;;;;4.43;4.03;;;;;;;24.07;48.46;94705.91;5096157;28;20461;-79
2021/07/03 07:43:45;;;;;;;5.17;3.97;;;;;;;23.73;48.95;94706.38;5095508;28;20522;-79
2021/07/03 07:46:12;;;;;;;7.00;3.70;;;;;;;23.53;50.11;94714.47;5095801;28;20444;-79
2021/07/03 07:48:40;;;;;;;4.27;3.97;;;;;;;23.46;52.39;94709.16;5095269;28;20453;-79
2021/07/03 07:51:08;;;;;;;4.50;4.10;;;;;;;23.62;50.65;94705.19;5095680;28;20502;-79
2021/07/03 07:53:35;;;;;;;6.87;4.37;;;;;;;23.91;49.69;94701.06;5095937;28;20455;-79
2021/07/03 07:56:02;;;;;;;5.90;4.43;;;;;;;23.86;51.04;94700.09;5095030;28;20523;-79
2021/07/03 07:58:30;;;;;;;4.57;4.17;;;;;;;24.17;49.19;94705.44;5095281;28;20608;-79
2021/07/03 08:01:01;;;;;;;4.83;4.07;;;;;;;24.67;49.48;94697.38;5094978;28;20452;-79
2021/07/03 08:03:27;;;;;;;4.90;4.33;;;;;;;24.65;47.88;94702.16;5095445;28;20445;-79
2021/07/03 08:05:54;;;;;;;4.83;4.33;;;;;;;24.70;47.01;94697.75;5095159;28;21020;-78
2021/07/03 08:08:21;;;;;;;4.40;3.97;;;;;;;24.66;47.52;94707.31;5059348;28;20447;-79
2021/07/03 08:10:48;;;;;;;4.13;3.83;;;;;;;24.49;46.24;94702.72;5094822;28;20680;-76
2021/07/03 08:13:15;;;;;;;5.73;4.07;;;;;;;24.47;49.29;94710.97;5094589;28;21001;-76
2021/07/03 08:15:44;;;;;;;5.30;3.90;;;;;;;24.40;46.98;94702.19;5094368;28;20455;-78
2021/07/03 08:18:11;;;;;;;3.83;3.63;;;;;;;24.52;46.39;94700.41;5093948;28;20482;-79
2021/07/03 08:20:39;;;;;;;4.20;3.80;;;;;;;24.54;47.13;94701.00;5094285;28;20955;-78
2021/07/03 08:23:05;;;;;;;8.50;3.70;;;;;;;24.64;46.90;94695.97;5094526;28;20480;-79
2021/07/03 08:25:32;;;;;;;3.47;3.23;;;;;;;24.62;47.21;94703.44;5094067;28;20993;-79
2021/07/03 08:27:59;;;;;;;3.83;3.53;;;;;;;24.64;46.96;94706.72;5093962;28;20486;-78
2021/07/03 08:30:29;;;;;;;3.00;2.80;;;;;;;24.17;47.54;94710.78;5093569;28;20442;-78
2021/07/03 08:32:57;;;;;;;3.70;3.40;;;;;;;23.99;48.48;94711.53;5093043;28;20522;-78
2021/07/03 08:35:26;;;;;;;4.70;3.37;;;;;;;23.86;50.74;94705.44;5093852;28;20448;-78
2021/07/03 08:37:53;;;;;;;5.57;3.50;;;;;;;23.71;49.79;94708.44;5093995;28;20439;-78
2021/07/03 08:40:20;;;;;;;3.70;3.40;;;;;;;23.86;49.82;94705.44;5094343;28;20447;-78
2021/07/03 08:42:48;;;;;;;5.47;3.40;;;;;;;24.06;49.14;94712.31;5058832;28;20461;-78
2021/07/03 08:45:16;;;;;;;3.73;3.33;;;;;;;24.46;49.19;94708.53;5075419;28;20777;-78
2021/07/03 08:47:44;;;;;;;7.00;4.07;;;;;;;24.57;48.71;94707.78;5094396;28;20520;-78
2021/07/03 08:50:16;;;;;;;3.80;3.50;;;;;;;24.68;48.57;94702.53;5094073;28;20451;-78
2021/07/03 08:52:43;;;;;;;4.53;3.90;;;;;;;25.00;48.43;94708.63;5094465;28;20492;-78
2021/07/03 08:55:14;;;;;;;3.60;3.30;;;;;;;25.29;48.30;94709.75;5094023;28;20445;-78
2021/07/03 08:57:48;;;;;;;3.53;3.23;;;;;;;25.37;46.58;94705.91;5094174;28;20442;-79
2021/07/03 09:00:18;;;;;;;4.00;3.70;;;;;;;25.30;46.49;94694.44;5094044;28;20454;-78
2021/07/03 09:02:46;;;;;;;4.60;2.80;;;;;;;25.40;46.40;94694.72;5094094;28;20450;-78
2021/07/03 09:05:25;;;;;;;8.23;3.60;;;;;;;25.53;45.91;94686.50;5093919;28;20878;-78
2021/07/03 09:07:58;;;;;;;6.23;3.80;;;;;;;25.62;45.13;94681.63;5093718;28;20828;-79
2021/07/03 09:10:25;;;;;;;3.73;3.40;;;;;;;25.43;45.95;94698.81;5093695;28;20447;-80
2021/07/03 09:12:54;;;;;;;4.30;3.83;;;;;;;25.16;46.31;94698.34;5093916;28;20469;-78
2021/07/03 09:15:23;;;;;;;4.37;3.60;;;;;;;24.57;48.47;94697.88;5094365;28;20522;-78
2021/07/03 09:17:53;;;;;;;4.10;3.80;;;;;;;24.63;48.49;94699.69;5093623;28;20525;-78
2021/07/03 09:20:33;;;;;;;4.20;3.90;;;;;;;24.81;48.70;94703.44;5093459;28;20450;-78
2021/07/03 09:23:08;;;;;;;4.47;4.17;;;;;;;24.69;48.50;94693.44;5093749;28;20529;-78
2021/07/03 09:25:36;;;;;;;5.33;4.03;;;;;;;24.66;48.77;94693.06;5093517;28;20926;-78
2021/07/03 09:28:16;;;;;;;3.73;3.53;;;;;;;24.78;47.94;94690.47;5093197;28;20942;-78
2021/07/03 09:30:44;;;;;;;4.27;3.97;;;;;;;24.70;48.81;94678.16;5093437;28;20937;-78
2021/07/03 09:33:16;;;;;;;10.93;4.10;;;;;;;24.86;47.52;94682.09;5093685;28;20446;-78
2021/07/03 09:35:44;;;;;;;5.20;4.70;;;;;;;24.87;47.04;94689.16;5093327;28;20856;-78
2021/07/03 09:38:13;;;;;;;9.83;3.87;;;;;;;24.59;47.83;94686.94;5093310;28;20875;-78
2021/07/03 09:40:40;;;;;;;5.63;4.73;;;;;;;24.23;48.60;94690.31;5093252;28;20453;-78
2021/07/03 09:43:09;;;;;;;5.43;4.90;;;;;;;24.05;49.66;94681.19;5093204;28;20447;-77
2021/07/03 09:45:37;;;;;;;4.87;4.20;;;;;;;23.77;49.37;94694.19;5093188;28;20450;-78
2021/07/03 09:48:06;;;;;;;5.20;4.80;;;;;;;23.49;50.54;94684.63;5093672;28;20524;-78
2021/07/03 09:50:33;;;;;;;5.60;5.20;;;;;;;23.72;50.62;94683.28;5093243;28;20974;-78
2021/07/03 09:53:03;;;;;;;7.80;4.87;;;;;;;23.94;50.72;94668.47;5093220;28;20554;-78
2021/07/03 09:55:30;;;;;;;4.90;4.50;;;;;;;24.00;49.27;94666.81;5093203;28;20441;-81
2021/07/03 09:57:57;;;;;;;5.13;4.83;;;;;;;24.06;49.65;94680.16;5093158;28;20464;-85
2021/07/03 10:00:25;;;;;;;6.70;5.47;;;;;;;23.97;49.69;94675.25;5093402;28;20485;-80
2021/07/03 10:02:53;;;;;;;5.37;5.00;;;;;;;23.86;49.14;94670.59;5093083;28;20439;-80
2021/07/03 10:05:23;;;;;;;6.17;5.50;;;;;;;23.63;49.04;94669.31;5093283;28;20455;-81
2021/07/03 10:07:56;;;;;;;6.47;5.80;;;;;;;23.61;50.26;94673.25;5093014;28;20468;-80
2021/07/03 10:10:27;;;;;;;5.43;4.93;;;;;;;23.56;50.01;94681.13;5093107;28;20527;-80
2021/07/03 10:13:03;;;;;;;7.00;6.50;;;;;;;23.61;50.14;94679.41;5092905;28;20530;-80
2021/07/03 10:15:32;;;;;;;6.60;6.10;;;;;;;23.61;50.68;94675.91;5058633;28;20964;-78
2021/07/03 10:18:14;;;;;;;8.00;7.23;;;;;;;23.58;50.62;94666.47;5092915;28;20530;-81
2021/07/03 10:20:41;;;;;;;8.80;5.87;;;;;;;23.60;50.86;94674.28;5092868;28;20508;-77
2021/07/03 10:23:09;;;;;;;6.43;5.93;;;;;;;23.47;49.86;94675.97;5092909;28;20462;-77
2021/07/03 10:25:39;;;;;;;5.93;5.53;;;;;;;23.78;50.18;94659.13;5092820;28;20489;-79
2021/07/03 10:28:09;;;;;;;7.80;7.20;;;;;;;23.97;49.50;94657.31;5092773;28;20534;-78
2021/07/03 10:30:38;;;;;;;7.80;7.00;;;;;;;24.18;49.69;94666.03;5092500;28;20530;-74
2021/07/03 10:33:06;;;;;;;7.63;6.77;;;;;;;24.29;48.71;94668.03;5092446;28;20835;-75
2021/07/03 10:35:42;;;;;;;7.20;6.60;;;;;;;24.40;48.27;94662.75;5092177;28;20447;-75
2021/07/03 10:38:26;;;;;;;6.33;5.83;;;;;;;24.25;47.16;94664.09;5091165;28;20438;-74
2021/07/03 10:40:56;;;;;;;6.90;6.30;;;;;;;24.26;48.03;94655.84;5092080;28;20447;-74
2021/07/03 10:43:23;;;;;;;7.53;6.90;;;;;;;24.21;49.08;94660.22;5092331;28;20486;-75
2021/07/03 10:45:52;;;;;;;6.67;6.17;;;;;;;24.18;48.81;94660.66;5092098;28;20541;-75
2021/07/03 10:48:22;;;;;;;6.97;6.27;;;;;;;24.20;49.45;94654.03;5092211;28;20446;-75
2021/07/03 10:50:51;;;;;;;7.37;6.77;;;;;;;24.31;48.60;94647.19;5091873;28;20536;-74
2021/07/03 10:53:24;;;;;;;7.47;6.90;;;;;;;24.29;48.03;94643.91;5092295;28;20452;-74
2021/07/03 10:55:51;;;;;;;7.63;7.13;;;;;;;24.34;48.26;94646.75;5094528;28;20470;-75
2021/07/03 10:58:21;;;;;;;7.50;5.83;;;;;;;24.16;47.60;94633.25;5095862;28;20450;-74
2021/07/03 11:00:51;;;;;;;6.80;6.07;;;;;;;24.14;46.92;94640.69;5095709;28;20529;-75
2021/07/03 11:03:21;;;;;;;7.13;6.50;;;;;;;24.25;48.44;94634.59;5095745;28;20446;-75
2021/07/03 11:05:48;;;;;;;6.50;6.00;;;;;;;24.46;47.04;94622.69;5095684;28;20502;-75
2021/07/03 11:08:16;;;;;;;8.30;6.07;;;;;;;24.58;46.47;94623.59;5059899;28;20522;-74
2021/07/03 11:10:43;;;;;;;6.33;5.87;;;;;;;24.83;47.12;94618.94;5095187;28;20457;-75
2021/07/03 11:13:21;;;;;;;6.13;5.73;;;;;;;25.05;46.08;94619.34;5095787;28;20537;-75
2021/07/03 11:15:48;;;;;;;7.60;6.13;;;;;;;24.99;44.66;94606.81;5095371;28;20451;-75
2021/07/03 11:18:15;;;;;;;8.83;6.70;;;;;;;24.88;46.27;94616.44;5095413;28;20918;-75
2021/07/03 11:20:43;;;;;;;8.83;5.87;;;;;;;24.70;45.78;94611.06;5095432;28;21000;-82
2021/07/03 11:23:11;;;;;;;6.75;6.18;;;;;;;24.82;45.38;94613.81;5096391;28;20456;-84
2021/07/03 11:25:39;;;;;;;8.70;7.40;;;;;;;24.81;46.34;94617.53;5096083;28;20188;-85
2021/07/03 11:28:08;;;;;;;7.67;6.97;;;;;;;24.77;46.95;94616.34;5096339;28;20541;-86
2021/07/03 11:30:38;;;;;;;7.37;6.67;;;;;;;24.76;46.49;94615.53;5096062;28;21013;-81
2021/07/03 11:33:05;;;;;;;7.30;6.70;;;;;;;24.74;47.23;94617.63;5096388;28;20435;-87
2021/07/03 11:35:34;;;;;;;6.90;6.40;;;;;;;24.86;46.60;94607.75;5077265;28;20442;-84
2021/07/03 11:38:02;;;;;;;7.60;5.80;;;;;;;24.80;45.01;94607.84;5096218;28;20523;-85